Fruithurst, Alabama
Current Conditions -  °F | °C
As of 4:15 PM on Tuesday 21 Oct 2014 (Local Time) from KCTJ Reporting Station
Clear Clear  
Wind Chill: 72°   Ceiling: Unl
Heat Index: 72°   Visibility: 10mi
Dew Point: 50°   Wind: 7mph
Humidity: 46%   Direction: 300°WNW
Pressure: 29.98"   Gusts: 17mph
Location:  33.73°N, 85.43°W
Report Text: KCTJ 212115Z AUTO 30006G15KT 280V340 10SM CLR 22/10 A2998 RMK AO2
Loading
Personal Weather Stations






























Interactive Weather Map
Tropical Storm Tracking
New forecast layout! Learn more

10-Day Weather Forecast

Advertisements
Track Severe Weather on mobile